Time;durP1;ratioP1;P1;durP2;ratioP2;P2;SDS_P1;SDS_P2;PMS_P1;PMS_P2;Temp;Humidity;BMP_temperature;BMP_pressure;BME280_temperature;BME280_humidity;BME280_pressure;Samples;Min_cycle;Max_cycle;Signal;HPM_P1;HPM_P2
2022/03/13 00:02:18;;;;;;;13.82;7.03;;;2.20;64.10;;;;;;5051992;28;20128;-65
2022/03/13 00:04:49;;;;;;;10.52;6.82;;;2.20;64.30;;;;;;5052190;28;20547;-65
2022/03/13 00:07:27;;;;;;;14.68;7.65;;;2.20;64.00;;;;;;5036979;28;20041;-65
2022/03/13 00:09:54;;;;;;;13.23;7.00;;;2.10;64.00;;;;;;5063764;28;20464;-65
2022/03/13 00:12:29;;;;;;;13.77;6.55;;;2.10;64.50;;;;;;5068977;28;20050;-65
2022/03/13 00:15:01;;;;;;;13.20;8.10;;;2.00;63.90;;;;;;5045840;28;20064;-65
2022/03/13 00:17:29;;;;;;;14.27;7.30;;;2.10;64.30;;;;;;5067346;28;20047;-65
2022/03/13 00:20:00;;;;;;;12.20;6.95;;;2.00;64.90;;;;;;5071863;28;20467;-65
2022/03/13 00:22:29;;;;;;;11.73;6.93;;;2.00;64.80;;;;;;5066811;28;20112;-65
2022/03/13 00:24:59;;;;;;;14.07;7.65;;;2.00;65.00;;;;;;5051369;28;20310;-65
2022/03/13 00:27:30;;;;;;;12.05;7.10;;;2.00;64.50;;;;;;5048595;28;20538;-65
2022/03/13 00:29:58;;;;;;;15.05;6.97;;;1.90;64.50;;;;;;5059725;28;20123;-65
2022/03/13 00:32:25;;;;;;;13.45;6.95;;;1.90;64.60;;;;;;5052259;28;20530;-65
2022/03/13 00:34:53;;;;;;;14.48;6.72;;;1.80;64.80;;;;;;5059925;28;20037;-65
2022/03/13 00:37:20;;;;;;;14.07;6.90;;;1.80;65.00;;;;;;5062389;28;20486;-64
2022/03/13 00:39:50;;;;;;;13.65;6.70;;;1.80;65.30;;;;;;5052097;28;20487;-64
2022/03/13 00:42:18;;;;;;;13.93;7.40;;;1.80;65.10;;;;;;5053746;28;20052;-65
2022/03/13 00:44:45;;;;;;;13.13;6.68;;;1.70;65.10;;;;;;5058709;28;20049;-66
2022/03/13 00:47:12;;;;;;;11.55;6.35;;;1.70;66.00;;;;;;5064193;28;20037;-65
2022/03/13 00:49:40;;;;;;;12.20;6.88;;;1.70;65.10;;;;;;5059321;28;20837;-64
2022/03/13 00:52:13;;;;;;;14.75;7.55;;;1.60;65.30;;;;;;5053096;28;20055;-65
2022/03/13 00:54:40;;;;;;;14.57;7.10;;;1.70;65.60;;;;;;5047980;28;20105;-65
2022/03/13 00:57:08;;;;;;;13.70;7.00;;;1.60;65.60;;;;;;5058304;28;20060;-65
2022/03/13 00:59:35;;;;;;;15.70;8.18;;;1.60;65.50;;;;;;5053608;28;20034;-66
2022/03/13 01:02:03;;;;;;;12.13;6.68;;;1.50;65.50;;;;;;5054001;28;20033;-66
2022/03/13 01:04:31;;;;;;;14.95;7.93;;;1.50;65.80;;;;;;5047802;28;20044;-65
2022/03/13 01:06:59;;;;;;;18.88;8.60;;;1.50;65.80;;;;;;5058208;28;20044;-65
2022/03/13 01:09:27;;;;;;;14.25;7.85;;;1.40;65.90;;;;;;5057646;28;20680;-66
2022/03/13 01:11:54;;;;;;;14.77;7.88;;;1.40;65.90;;;;;;5048015;28;20048;-66
2022/03/13 01:14:23;;;;;;;15.18;7.25;;;1.40;66.10;;;;;;5049824;28;20040;-65
2022/03/13 01:17:08;;;;;;;13.63;7.07;;;1.40;66.30;;;;;;5050208;28;20051;-66
2022/03/13 01:19:37;;;;;;;13.50;7.07;;;1.30;66.40;;;;;;5049524;28;20528;-66
2022/03/13 01:22:06;;;;;;;13.25;6.65;;;1.30;66.40;;;;;;5049915;28;20133;-66
2022/03/13 01:24:43;;;;;;;14.63;7.68;;;1.30;66.40;;;;;;5050453;28;20496;-65
2022/03/13 01:27:16;;;;;;;12.10;7.10;;;1.30;66.30;;;;;;5049616;28;20392;-65
2022/03/13 01:29:44;;;;;;;13.23;7.40;;;1.20;66.40;;;;;;5050464;28;20070;-65
2022/03/13 01:32:16;;;;;;;17.92;7.68;;;1.20;66.50;;;;;;5048533;28;20049;-65
2022/03/13 01:34:46;;;;;;;13.20;6.95;;;1.20;66.70;;;;;;5050195;28;20048;-65
2022/03/13 01:37:29;;;;;;;14.65;7.68;;;1.10;66.80;;;;;;5050649;28;20793;-65
2022/03/13 01:40:01;;;;;;;12.20;6.72;;;1.10;66.80;;;;;;5050601;28;20068;-65
2022/03/13 01:42:28;;;;;;;11.68;6.97;;;1.10;66.90;;;;;;5052118;28;20041;-65
2022/03/13 01:44:56;;;;;;;16.52;7.43;;;1.10;66.80;;;;;;5061851;28;20063;-65
2022/03/13 01:47:24;;;;;;;12.13;6.93;;;1.10;66.90;;;;;;5049750;28;20044;-65
2022/03/13 01:49:51;;;;;;;13.68;6.78;;;1.00;66.80;;;;;;5069920;28;20041;-65
2022/03/13 01:52:25;;;;;;;12.85;7.38;;;1.00;66.90;;;;;;5047326;28;20041;-65
2022/03/13 01:54:55;;;;;;;11.77;6.70;;;1.00;66.90;;;;;;5052546;28;20478;-64
2022/03/13 01:57:23;;;;;;;12.00;6.93;;;1.00;66.80;;;;;;5053087;28;20052;-64
2022/03/13 01:59:54;;;;;;;14.65;7.53;;;1.00;66.60;;;;;;5048872;28;20567;-64
2022/03/13 02:02:26;;;;;;;13.85;7.18;;;1.00;66.70;;;;;;5049413;28;20127;-65
2022/03/13 02:04:55;;;;;;;12.05;6.63;;;1.00;66.90;;;;;;5050380;28;20060;-65
2022/03/13 02:07:23;;;;;;;11.00;6.10;;;1.00;67.00;;;;;;5045274;28;20044;-66
2022/03/13 02:09:50;;;;;;;12.15;6.25;;;0.90;66.80;;;;;;5050657;28;20124;-65
2022/03/13 02:12:20;;;;;;;12.88;7.30;;;0.90;66.90;;;;;;5051177;28;20488;-65
2022/03/13 02:14:50;;;;;;;13.45;7.32;;;1.00;66.90;;;;;;5050763;28;20051;-65
2022/03/13 02:17:34;;;;;;;13.00;6.93;;;0.90;66.80;;;;;;5049609;28;20040;-65
2022/03/13 02:20:03;;;;;;;14.85;6.60;;;0.90;66.80;;;;;;5052133;28;20048;-65
2022/03/13 02:22:31;;;;;;;11.38;6.95;;;0.90;66.90;;;;;;5049000;28;20048;-65
2022/03/13 02:25:00;;;;;;;12.85;6.97;;;0.90;66.80;;;;;;5050083;28;20048;-65
2022/03/13 02:27:29;;;;;;;12.20;7.10;;;0.90;66.90;;;;;;5049854;28;20479;-65
2022/03/13 02:29:57;;;;;;;12.90;6.88;;;0.90;66.80;;;;;;5052366;28;20056;-64
2022/03/13 02:32:24;;;;;;;15.55;7.40;;;0.90;66.80;;;;;;5049957;28;20500;-64
2022/03/13 02:34:54;;;;;;;14.35;7.32;;;0.80;66.70;;;;;;5049179;28;20083;-65
2022/03/13 02:37:36;;;;;;;13.13;6.97;;;0.80;66.90;;;;;;5051897;28;20060;-64
2022/03/13 02:40:05;;;;;;;13.95;7.13;;;0.90;67.00;;;;;;5048738;28;20049;-65
2022/03/13 02:42:33;;;;;;;12.60;7.22;;;0.90;66.80;;;;;;5051635;28;20099;-66
2022/03/13 02:45:01;;;;;;;14.15;6.68;;;0.80;66.60;;;;;;5049828;28;20396;-66
2022/03/13 02:47:30;;;;;;;13.02;6.40;;;0.80;67.10;;;;;;5052754;28;20076;-65
2022/03/13 02:49:57;;;;;;;10.80;6.40;;;0.80;66.90;;;;;;5039800;28;20056;-64
2022/03/13 02:52:25;;;;;;;15.48;7.15;;;0.70;67.30;;;;;;5052223;28;20337;-65
2022/03/13 02:54:52;;;;;;;12.45;6.90;;;0.70;67.50;;;;;;5038333;28;20064;-65
2022/03/13 02:57:20;;;;;;;14.18;6.55;;;0.70;67.20;;;;;;5049674;28;20141;-65
2022/03/13 02:59:48;;;;;;;11.25;6.65;;;0.60;67.30;;;;;;5048860;28;20476;-65
2022/03/13 03:02:17;;;;;;;12.90;7.10;;;0.60;67.40;;;;;;5047403;28;20060;-64
2022/03/13 03:04:44;;;;;;;12.32;7.20;;;0.60;67.60;;;;;;5048200;28;20064;-65
2022/03/13 03:07:12;;;;;;;12.82;6.85;;;0.60;67.50;;;;;;5029529;28;20080;-65
2022/03/13 03:09:39;;;;;;;13.95;6.60;;;0.50;67.90;;;;;;5027900;28;20545;-65
2022/03/13 03:12:08;;;;;;;12.93;7.40;;;0.50;67.50;;;;;;5048618;28;20065;-65
2022/03/13 03:14:35;;;;;;;15.75;7.47;;;0.50;67.50;;;;;;5051393;28;20076;-65
2022/03/13 03:17:03;;;;;;;12.80;7.20;;;0.50;67.70;;;;;;5054756;28;20487;-65
2022/03/13 03:19:31;;;;;;;13.30;6.90;;;0.50;67.70;;;;;;5054413;28;20098;-65
2022/03/13 03:21:59;;;;;;;11.65;6.95;;;0.50;68.00;;;;;;5051945;28;20072;-65
2022/03/13 03:24:27;;;;;;;13.63;6.88;;;0.40;68.00;;;;;;5052196;28;20383;-65
2022/03/13 03:26:54;;;;;;;10.93;6.85;;;0.40;68.10;;;;;;5050524;28;20106;-65
2022/03/13 03:29:25;;;;;;;15.65;7.18;;;0.40;67.90;;;;;;5038169;28;20044;-64
2022/03/13 03:31:53;;;;;;;13.10;7.07;;;0.40;68.10;;;;;;5044327;28;20122;-65
2022/03/13 03:34:22;;;;;;;14.07;6.90;;;0.40;68.30;;;;;;5053765;28;20294;-65
2022/03/13 03:37:03;;;;;;;12.63;6.68;;;0.40;68.50;;;;;;5052980;28;20495;-65
2022/03/13 03:39:31;;;;;;;13.55;6.95;;;0.30;68.40;;;;;;5051529;28;20412;-65
2022/03/13 03:42:00;;;;;;;14.82;7.07;;;0.30;68.40;;;;;;5051824;28;20057;-65
2022/03/13 03:44:28;;;;;;;14.23;7.15;;;0.30;68.50;;;;;;5054631;28;20056;-65
2022/03/13 03:46:55;;;;;;;11.75;6.80;;;0.30;68.90;;;;;;5051800;28;20055;-65
2022/03/13 03:49:23;;;;;;;12.88;7.35;;;0.30;68.80;;;;;;5041337;28;20056;-65
2022/03/13 03:51:51;;;;;;;12.18;7.25;;;0.20;68.90;;;;;;5049266;28;20148;-65
2022/03/13 03:54:19;;;;;;;12.63;7.18;;;0.20;69.00;;;;;;5048959;28;20120;-65
2022/03/13 03:56:46;;;;;;;13.20;6.90;;;0.20;69.10;;;;;;5054179;28;20049;-65
2022/03/13 03:59:13;;;;;;;16.05;7.88;;;0.10;69.00;;;;;;5051643;28;20178;-65
2022/03/13 04:01:42;;;;;;;12.45;6.97;;;0.10;68.80;;;;;;5053129;28;20590;-65
2022/03/13 04:04:17;;;;;;;11.35;6.90;;;0.10;68.70;;;;;;5061600;28;20049;-65
2022/03/13 04:06:44;;;;;;;13.30;6.57;;;0.10;69.00;;;;;;5047215;28;20057;-65
2022/03/13 04:09:12;;;;;;;13.23;6.47;;;0.10;69.30;;;;;;5053134;28;20480;-65
2022/03/13 04:11:40;;;;;;;14.02;7.13;;;0.00;69.20;;;;;;5063749;28;20174;-64
2022/03/13 04:14:11;;;;;;;15.85;7.03;;;0.10;69.40;;;;;;5051989;28;20041;-64
2022/03/13 04:16:38;;;;;;;11.63;6.43;;;0.00;69.30;;;;;;5051575;28;20392;-65
2022/03/13 04:19:05;;;;;;;14.25;7.00;;;0.00;69.40;;;;;;5058490;28;20052;-65
2022/03/13 04:21:33;;;;;;;12.25;6.72;;;0.00;69.60;;;;;;5061365;28;20045;-65
2022/03/13 04:24:00;;;;;;;12.88;7.25;;;0.00;69.50;;;;;;5068478;28;20067;-65
2022/03/13 04:26:28;;;;;;;14.52;7.35;;;0.00;69.20;;;;;;5056355;28;20056;-65
2022/03/13 04:28:55;;;;;;;12.60;6.50;;;0.00;69.30;;;;;;5054543;28;20098;-65
2022/03/13 04:31:24;;;;;;;12.38;6.80;;;0.00;69.60;;;;;;5053717;28;20060;-65
2022/03/13 04:33:52;;;;;;;11.93;6.72;;;0.00;69.30;;;;;;5057996;28;20071;-65
2022/03/13 04:36:23;;;;;;;15.13;6.95;;;0.00;69.60;;;;;;5036765;28;20075;-65
2022/03/13 04:38:50;;;;;;;12.23;6.70;;;0.00;69.40;;;;;;5057489;28;20048;-65
2022/03/13 04:41:18;;;;;;;11.68;6.50;;;0.00;69.50;;;;;;5053491;28;20049;-65
2022/03/13 04:43:45;;;;;;;12.20;6.80;;;-0.10;69.90;;;;;;5055926;28;20049;-65
2022/03/13 04:46:15;;;;;;;12.85;5.97;;;-0.10;70.00;;;;;;5054157;28;20575;-65
2022/03/13 04:48:42;;;;;;;14.25;6.50;;;-0.10;69.80;;;;;;5065460;28;20048;-65
2022/03/13 04:51:10;;;;;;;14.35;7.40;;;-0.10;70.10;;;;;;5064101;28;20064;-65
2022/03/13 04:53:37;;;;;;;11.85;7.00;;;-0.10;70.40;;;;;;5046327;28;20437;-65
2022/03/13 04:56:05;;;;;;;13.20;6.88;;;-0.10;70.40;;;;;;5055926;28;20460;-64
2022/03/13 04:58:33;;;;;;;12.85;7.35;;;-0.10;70.20;;;;;;5068496;28;20028;-66
2022/03/13 05:01:00;;;;;;;13.82;6.82;;;-0.20;70.40;;;;;;5045287;28;20389;-64
2022/03/13 05:03:32;;;;;;;11.10;6.20;;;-0.20;70.60;;;;;;5043879;28;20049;-65
2022/03/13 05:06:00;;;;;;;12.38;6.63;;;-0.20;70.60;;;;;;5049321;28;20059;-65
2022/03/13 05:08:28;;;;;;;15.07;7.13;;;-0.20;70.30;;;;;;5052601;28;20414;-65
2022/03/13 05:10:56;;;;;;;14.55;7.07;;;-0.20;70.40;;;;;;5051715;28;20048;-65
2022/03/13 05:13:24;;;;;;;12.00;6.45;;;-0.20;70.70;;;;;;5045624;28;20485;-65
2022/03/13 05:15:52;;;;;;;12.65;6.85;;;-0.20;70.60;;;;;;5055740;28;20048;-65
2022/03/13 05:18:20;;;;;;;12.77;6.70;;;-0.20;70.50;;;;;;5049048;28;20147;-65
2022/03/13 05:20:47;;;;;;;12.38;7.25;;;-0.20;70.50;;;;;;5051653;28;20471;-65
2022/03/13 05:23:15;;;;;;;11.85;6.63;;;-0.30;70.60;;;;;;5050501;28;20361;-65
2022/03/13 05:25:42;;;;;;;11.32;6.35;;;-0.30;70.40;;;;;;5050250;28;20139;-64
2022/03/13 05:28:13;;;;;;;13.43;7.32;;;-0.30;70.30;;;;;;5052545;28;20103;-64
2022/03/13 05:30:42;;;;;;;12.15;6.72;;;-0.30;70.70;;;;;;5060092;28;20052;-65
2022/03/13 05:33:09;;;;;;;13.13;6.63;;;-0.30;70.90;;;;;;5047159;28;20045;-65
2022/03/13 05:35:36;;;;;;;14.13;6.50;;;-0.40;71.00;;;;;;5045827;28;20168;-65
2022/03/13 05:38:04;;;;;;;13.05;7.28;;;-0.30;71.00;;;;;;5046709;28;20531;-65
2022/03/13 05:40:33;;;;;;;13.90;7.03;;;-0.30;70.80;;;;;;5054342;28;20516;-64
2022/03/13 05:43:00;;;;;;;11.45;6.57;;;-0.30;71.20;;;;;;5048754;28;20049;-66
2022/03/13 05:45:29;;;;;;;12.60;6.90;;;-0.30;71.00;;;;;;5058151;28;20074;-65
2022/03/13 05:48:00;;;;;;;13.82;6.65;;;-0.20;70.60;;;;;;5053652;28;20123;-65
2022/03/13 05:50:30;;;;;;;14.30;6.20;;;-0.20;70.50;;;;;;5051690;28;20522;-65
2022/03/13 05:52:57;;;;;;;14.23;7.18;;;-0.10;70.60;;;;;;5045068;28;20041;-65
2022/03/13 05:55:25;;;;;;;14.20;6.95;;;-0.10;70.70;;;;;;5045402;28;20128;-66
2022/03/13 05:57:54;;;;;;;15.15;7.47;;;-0.10;70.50;;;;;;5054301;28;20045;-65
2022/03/13 06:00:25;;;;;;;12.65;6.82;;;-0.10;70.20;;;;;;5051328;28;20040;-65
2022/03/13 06:02:53;;;;;;;14.70;7.03;;;0.00;70.30;;;;;;5062923;28;20040;-65
2022/03/13 06:05:21;;;;;;;15.55;6.88;;;0.00;70.10;;;;;;5063533;28;20046;-65
2022/03/13 06:07:49;;;;;;;17.77;7.43;;;0.10;70.50;;;;;;5050664;28;20055;-66
2022/03/13 06:10:22;;;;;;;14.48;7.45;;;0.10;70.10;;;;;;5046656;28;20052;-65
2022/03/13 06:12:49;;;;;;;11.27;6.80;;;0.20;69.80;;;;;;5045136;28;20045;-66
2022/03/13 06:15:17;;;;;;;12.70;6.57;;;0.30;69.60;;;;;;5054896;28;20055;-64
2022/03/13 06:17:47;;;;;;;12.85;6.47;;;0.30;69.10;;;;;;5047323;28;20412;-65
2022/03/13 06:20:17;;;;;;;12.85;6.90;;;0.40;69.00;;;;;;5050941;28;20056;-65
2022/03/13 06:22:47;;;;;;;12.40;6.88;;;0.50;69.20;;;;;;5053427;28;20567;-65
2022/03/13 06:25:16;;;;;;;11.85;6.97;;;0.60;69.10;;;;;;5053969;28;20392;-65
2022/03/13 06:27:44;;;;;;;12.25;7.10;;;0.70;68.70;;;;;;5041907;28;20045;-65
2022/03/13 06:30:16;;;;;;;11.82;6.68;;;0.70;68.60;;;;;;5056172;28;20051;-65
2022/03/13 06:32:47;;;;;;;12.85;7.10;;;0.80;68.30;;;;;;5050534;28;20061;-66
2022/03/13 06:35:17;;;;;;;12.38;6.22;;;0.90;68.20;;;;;;5050168;28;20041;-64
2022/03/13 06:37:45;;;;;;;10.90;6.63;;;0.90;67.90;;;;;;5049547;28;20063;-66
2022/03/13 06:40:16;;;;;;;15.23;7.70;;;1.00;67.50;;;;;;5055636;28;20047;-65
2022/03/13 06:42:43;;;;;;;12.07;6.35;;;1.10;67.20;;;;;;5042440;28;20041;-66
2022/03/13 06:45:12;;;;;;;13.40;7.15;;;1.10;67.10;;;;;;5039679;28;20053;-66
2022/03/13 06:47:44;;;;;;;13.15;7.03;;;1.20;67.20;;;;;;5050482;28;20045;-65
2022/03/13 06:50:17;;;;;;;11.93;6.95;;;1.30;66.90;;;;;;5058375;28;20045;-66
2022/03/13 06:52:46;;;;;;;11.63;6.63;;;1.40;67.10;;;;;;5054603;28;20063;-66
2022/03/13 06:55:14;;;;;;;13.73;7.15;;;1.40;66.50;;;;;;5054633;28;20479;-66
2022/03/13 06:57:43;;;;;;;13.35;6.47;;;1.50;66.40;;;;;;5059308;28;20055;-66
2022/03/13 07:00:12;;;;;;;12.48;6.68;;;1.60;66.30;;;;;;5051022;28;20423;-66
2022/03/13 07:02:44;;;;;;;11.70;6.97;;;1.60;66.10;;;;;;5050882;28;20990;-65
2022/03/13 07:05:14;;;;;;;13.73;6.95;;;1.70;66.20;;;;;;5046559;28;20036;-66
2022/03/13 07:07:42;;;;;;;11.82;7.00;;;1.80;66.50;;;;;;5054978;28;20092;-66
2022/03/13 07:10:11;;;;;;;12.00;6.82;;;1.90;65.80;;;;;;5056563;28;20049;-65
2022/03/13 07:12:41;;;;;;;10.15;6.00;;;1.90;65.80;;;;;;5012690;28;20060;-66
2022/03/13 07:15:12;;;;;;;12.07;6.88;;;2.00;65.50;;;;;;5061893;28;20049;-65
2022/03/13 07:17:44;;;;;;;12.77;6.75;;;2.10;65.30;;;;;;5047878;28;20095;-65
2022/03/13 07:20:13;;;;;;;12.98;7.40;;;2.20;65.10;;;;;;5034209;28;20092;-66
2022/03/13 07:22:42;;;;;;;14.20;7.03;;;2.30;64.60;;;;;;5057145;28;20486;-66
2022/03/13 07:25:10;;;;;;;11.95;6.68;;;2.40;64.50;;;;;;5053930;28;20066;-65
2022/03/13 07:27:38;;;;;;;11.70;6.63;;;2.40;64.10;;;;;;5056224;28;20059;-65
2022/03/13 07:30:08;;;;;;;12.55;7.03;;;2.50;64.00;;;;;;5058402;28;20040;-65
2022/03/13 07:32:37;;;;;;;14.50;6.65;;;2.60;64.10;;;;;;5049974;28;20033;-66
2022/03/13 07:35:04;;;;;;;12.20;7.22;;;2.70;63.80;;;;;;5048333;28;20049;-66
2022/03/13 07:37:32;;;;;;;11.57;6.80;;;2.80;63.30;;;;;;5050105;28;20325;-66
2022/03/13 07:40:00;;;;;;;14.02;7.25;;;2.90;63.00;;;;;;5051455;28;20152;-64
2022/03/13 07:42:28;;;;;;;15.20;6.85;;;3.00;63.10;;;;;;5051797;28;20056;-65
2022/03/13 07:44:56;;;;;;;12.55;7.32;;;3.10;63.20;;;;;;5038497;28;20083;-65
2022/03/13 07:47:24;;;;;;;12.10;6.50;;;3.20;62.80;;;;;;5052334;28;20068;-65
2022/03/13 07:49:52;;;;;;;11.88;7.00;;;3.20;62.60;;;;;;5052639;28;20132;-66
2022/03/13 07:52:19;;;;;;;11.63;6.85;;;3.30;62.50;;;;;;5049330;28;20045;-66
2022/03/13 07:54:46;;;;;;;12.40;7.03;;;3.40;62.20;;;;;;5051614;28;20504;-66
2022/03/13 07:57:14;;;;;;;12.93;6.82;;;3.50;62.20;;;;;;5041332;28;20051;-66
2022/03/13 07:59:41;;;;;;;15.80;6.57;;;3.60;61.40;;;;;;5040274;28;20501;-66
2022/03/13 08:02:09;;;;;;;15.95;7.82;;;3.60;61.70;;;;;;5055058;28;20147;-66
2022/03/13 08:04:37;;;;;;;11.93;7.47;;;3.70;61.60;;;;;;5054796;28;20115;-65
2022/03/13 08:07:05;;;;;;;14.63;7.53;;;3.80;62.00;;;;;;5053746;28;20050;-67
2022/03/13 08:09:34;;;;;;;11.80;6.72;;;4.00;61.00;;;;;;5026175;28;20049;-67
2022/03/13 08:12:03;;;;;;;12.35;6.72;;;4.10;60.70;;;;;;5042621;28;20159;-65
2022/03/13 08:14:30;;;;;;;14.10;7.05;;;4.20;60.80;;;;;;5060877;28;20036;-66
2022/03/13 08:16:58;;;;;;;11.13;6.80;;;4.40;60.50;;;;;;5053695;28;20037;-65
2022/03/13 08:19:25;;;;;;;11.25;6.72;;;4.50;60.30;;;;;;5059214;28;20037;-66
2022/03/13 08:21:52;;;;;;;13.60;7.13;;;4.70;60.20;;;;;;5051525;28;20157;-66
2022/03/13 08:24:20;;;;;;;9.93;6.22;;;4.80;59.50;;;;;;5050302;28;20073;-65
2022/03/13 08:26:48;;;;;;;11.73;6.85;;;5.00;59.40;;;;;;5056151;28;20690;-66
2022/03/13 08:29:16;;;;;;;11.52;6.70;;;5.20;59.00;;;;;;5051933;28;20079;-66
2022/03/13 08:31:43;;;;;;;11.20;6.07;;;5.40;58.00;;;;;;5053058;28;20550;-67
2022/03/13 08:34:11;;;;;;;10.30;5.90;;;5.60;57.50;;;;;;5052681;28;20131;-66
2022/03/13 08:36:40;;;;;;;10.18;5.70;;;5.80;57.00;;;;;;5050100;28;20057;-66
2022/03/13 08:39:07;;;;;;;11.50;6.03;;;5.90;56.30;;;;;;5067773;28;20150;-66
2022/03/13 08:41:35;;;;;;;9.35;5.70;;;6.00;56.40;;;;;;5057422;28;20037;-67
2022/03/13 08:44:03;;;;;;;11.20;5.90;;;6.10;55.80;;;;;;5051429;28;20059;-68
2022/03/13 08:46:30;;;;;;;11.25;6.18;;;6.40;55.80;;;;;;5058497;28;20045;-67
2022/03/13 08:48:58;;;;;;;14.85;7.95;;;6.40;55.10;;;;;;5053031;28;20051;-66
2022/03/13 08:51:27;;;;;;;12.82;6.55;;;6.50;55.30;;;;;;5060598;28;20406;-67
2022/03/13 08:53:56;;;;;;;12.20;6.43;;;6.70;55.20;;;;;;5059085;28;20504;-67
2022/03/13 08:56:23;;;;;;;12.52;6.95;;;6.80;54.90;;;;;;5054615;28;20044;-66
2022/03/13 08:58:50;;;;;;;12.25;7.22;;;7.00;54.60;;;;;;5049318;28;20056;-67
2022/03/13 09:01:18;;;;;;;12.73;6.93;;;7.10;54.40;;;;;;5051020;28;20059;-66
2022/03/13 09:03:48;;;;;;;11.98;7.00;;;7.20;53.80;;;;;;5050617;28;20049;-67
2022/03/13 09:06:15;;;;;;;11.88;6.55;;;7.30;53.60;;;;;;5050311;28;20080;-67
2022/03/13 09:08:43;;;;;;;13.15;7.43;;;7.40;53.60;;;;;;5049994;28;20586;-66
2022/03/13 09:11:11;;;;;;;19.80;8.40;;;7.50;54.40;;;;;;5048407;28;20256;-67
2022/03/13 09:13:38;;;;;;;12.48;6.70;;;7.60;53.40;;;;;;5051460;28;20036;-68
2022/03/13 09:16:06;;;;;;;16.83;7.03;;;7.70;53.20;;;;;;5053358;28;20067;-67
2022/03/13 09:18:34;;;;;;;10.65;6.30;;;7.80;52.90;;;;;;5061785;28;20032;-66
2022/03/13 09:21:02;;;;;;;10.57;6.40;;;8.00;52.90;;;;;;5059550;28;20466;-64
2022/03/13 09:23:30;;;;;;;13.32;7.65;;;8.10;52.70;;;;;;5062083;28;20499;-65
2022/03/13 09:25:58;;;;;;;13.70;7.60;;;8.20;52.50;;;;;;5059614;28;20053;-67
2022/03/13 09:28:26;;;;;;;13.80;7.93;;;8.40;52.50;;;;;;5052092;28;20045;-65
2022/03/13 09:30:54;;;;;;;13.55;8.27;;;8.50;52.30;;;;;;5068016;28;20055;-68
2022/03/13 09:33:21;;;;;;;12.77;7.40;;;8.60;52.30;;;;;;5060349;28;20127;-66
2022/03/13 09:35:48;;;;;;;11.00;6.95;;;8.70;51.90;;;;;;5051956;28;20048;-66
2022/03/13 09:38:16;;;;;;;15.63;8.35;;;8.80;51.90;;;;;;5051902;28;20516;-66
2022/03/13 09:40:44;;;;;;;12.32;7.15;;;9.00;51.70;;;;;;5053954;28;20068;-64
2022/03/13 09:43:11;;;;;;;12.95;6.88;;;9.10;51.50;;;;;;5044912;28;20053;-67
2022/03/13 09:45:39;;;;;;;12.13;6.47;;;9.20;51.20;;;;;;5051927;28;20059;-66
2022/03/13 09:48:10;;;;;;;12.27;6.88;;;9.30;51.60;;;;;;5053662;28;20135;-66
2022/03/13 09:50:39;;;;;;;12.30;6.32;;;9.50;51.20;;;;;;5050137;28;20504;-66
2022/03/13 09:53:06;;;;;;;12.70;6.35;;;9.70;50.90;;;;;;5050394;28;20503;-67
2022/03/13 09:55:34;;;;;;;10.70;6.43;;;9.90;50.60;;;;;;5051115;28;20381;-66
2022/03/13 09:58:02;;;;;;;10.13;6.10;;;10.00;50.60;;;;;;5050667;28;20045;-66
2022/03/13 10:00:29;;;;;;;9.30;5.97;;;10.10;50.80;;;;;;5036731;28;20041;-66
2022/03/13 10:02:57;;;;;;;10.88;6.18;;;10.30;50.70;;;;;;5047014;28;20076;-66
2022/03/13 10:05:27;;;;;;;10.43;5.70;;;10.50;50.00;;;;;;5049701;28;20512;-66
2022/03/13 10:08:03;;;;;;;9.18;5.63;;;10.60;49.80;;;;;;5051496;28;20561;-65
2022/03/13 10:10:40;;;;;;;10.45;5.57;;;10.70;49.70;;;;;;5053820;28;20049;-65
2022/03/13 10:13:08;;;;;;;12.52;6.65;;;10.90;49.60;;;;;;5051162;28;20056;-66
2022/03/13 10:15:49;;;;;;;12.20;7.63;;;11.00;49.40;;;;;;5052975;28;20408;-66
2022/03/13 10:18:23;;;;;;;11.88;6.85;;;11.10;49.40;;;;;;5044945;28;20806;-66
2022/03/13 10:20:52;;;;;;;10.88;6.82;;;11.30;49.20;;;;;;5047959;28;20455;-65
2022/03/13 10:23:22;;;;;;;13.85;7.35;;;11.50;49.00;;;;;;5046367;28;20099;-65
2022/03/13 10:25:53;;;;;;;12.18;6.93;;;11.60;49.00;;;;;;5049932;28;20483;-65
2022/03/13 10:28:28;;;;;;;10.93;6.63;;;11.70;48.60;;;;;;5049972;28;20135;-66
2022/03/13 10:30:58;;;;;;;10.77;6.70;;;11.90;48.50;;;;;;5056581;28;20136;-67
2022/03/13 10:33:46;;;;;;;11.00;6.95;;;12.10;48.20;;;;;;5053401;28;20036;-65
2022/03/13 10:36:18;;;;;;;10.00;6.93;;;12.20;48.30;;;;;;5042809;28;20037;-65
2022/03/13 10:38:46;;;;;;;;;;;12.30;48.20;;;;;;5050048;28;20044;-66
2022/03/13 10:41:13;;;;;;;13.68;7.72;;;12.50;48.00;;;;;;5060142;28;21442;-66
2022/03/13 10:43:52;;;;;;;10.77;6.53;;;12.70;48.00;;;;;;5054128;28;20045;-66
2022/03/13 10:46:35;;;;;;;10.43;7.20;;;12.90;47.60;;;;;;5058072;28;20156;-66
2022/03/13 10:49:09;;;;;;;10.80;7.03;;;13.00;47.40;;;;;;5053605;28;20071;-65
2022/03/13 10:51:46;;;;;;;10.50;6.65;;;13.20;47.20;;;;;;5044443;28;20494;-65
2022/03/13 10:54:32;;;;;;;10.93;7.22;;;13.30;47.30;;;;;;5056719;28;20047;-66
2022/03/13 10:57:09;;;;;;;10.45;7.03;;;13.50;47.10;;;;;;5052791;28;20095;-66
2022/03/13 10:59:38;;;;;;;9.52;6.20;;;13.80;46.90;;;;;;5053360;28;20446;-67
2022/03/13 11:02:12;;;;;;;12.85;7.00;;;14.10;46.80;;;;;;5052000;28;20048;-66
2022/03/13 11:04:55;;;;;;;12.05;7.00;;;14.30;46.10;;;;;;5052563;28;20060;-66
2022/03/13 11:07:24;;;;;;;14.65;7.65;;;14.50;45.90;;;;;;5051954;28;20056;-66
2022/03/13 11:09:52;;;;;;;10.02;6.15;;;14.70;45.90;;;;;;5053965;28;20041;-66
2022/03/13 11:12:20;;;;;;;10.32;6.38;;;14.70;45.70;;;;;;5061237;28;20075;-67
2022/03/13 11:14:56;;;;;;;9.73;6.40;;;14.90;45.60;;;;;;5057290;28;20068;-66
2022/03/13 11:17:26;;;;;;;13.88;8.15;;;15.00;45.60;;;;;;5053574;28;20503;-66
2022/03/13 11:19:59;;;;;;;10.48;6.70;;;15.50;45.40;;;;;;5052612;28;20083;-67
2022/03/13 11:22:28;;;;;;;11.57;6.00;;;15.80;44.60;;;;;;5052892;28;20401;-65
2022/03/13 11:24:57;;;;;;;11.07;5.85;;;16.10;44.60;;;;;;5055970;28;20139;-66
2022/03/13 11:27:26;;;;;;;11.52;6.68;;;16.20;44.30;;;;;;5052241;28;20044;-65
2022/03/13 11:29:54;;;;;;;10.63;6.28;;;16.40;44.20;;;;;;5054343;28;20087;-66
2022/03/13 11:32:36;;;;;;;10.48;6.55;;;16.60;44.10;;;;;;5056583;28;20064;-66
2022/03/13 11:35:10;;;;;;;10.80;6.78;;;16.60;43.50;;;;;;5051872;28;20156;-66
2022/03/13 11:37:51;;;;;;;9.05;6.32;;;16.70;43.70;;;;;;5050885;28;20053;-65
2022/03/13 11:40:36;;;;;;;8.95;5.93;;;16.90;43.60;;;;;;5054262;28;20048;-66
2022/03/13 11:43:19;;;;;;;12.45;7.18;;;17.20;43.50;;;;;;5041854;28;20037;-65
2022/03/13 11:46:00;;;;;;;10.27;6.80;;;17.30;43.10;;;;;;5050943;28;20107;-67
2022/03/13 11:48:32;;;;;;;11.80;6.40;;;17.80;43.10;;;;;;5053568;28;20419;-66
2022/03/13 11:51:03;;;;;;;10.43;6.43;;;18.00;42.80;;;;;;5055128;28;20115;-66
2022/03/13 11:53:40;;;;;;;8.70;6.00;;;17.90;42.70;;;;;;5051984;28;20052;-65
2022/03/13 11:56:26;;;;;;;10.35;6.70;;;18.10;42.50;;;;;;5055066;28;20040;-67
2022/03/13 11:59:18;;;;;;;8.95;6.18;;;18.40;42.30;;;;;;5047356;28;20442;-66
2022/03/13 12:01:48;;;;;;;8.70;5.97;;;18.60;42.70;;;;;;5047943;28;20055;-66
2022/03/13 12:04:16;;;;;;;9.10;6.13;;;18.90;42.20;;;;;;5052009;28;20061;-65
2022/03/13 12:06:44;;;;;;;9.00;6.38;;;19.40;41.70;;;;;;5051884;28;20057;-66
2022/03/13 12:09:16;;;;;;;12.82;6.15;;;19.60;41.60;;;;;;5052995;28;20051;-66
2022/03/13 12:11:56;;;;;;;9.90;6.20;;;19.80;41.30;;;;;;5052278;28;20048;-66
2022/03/13 12:14:53;;;;;;;11.00;6.10;;;20.20;41.20;;;;;;5052461;28;20147;-66
2022/03/13 12:17:25;;;;;;;10.32;5.90;;;19.80;40.90;;;;;;5051486;28;20041;-66
2022/03/13 12:19:55;;;;;;;10.00;6.20;;;19.90;40.70;;;;;;5052219;28;20048;-65
2022/03/13 12:22:25;;;;;;;10.48;6.25;;;20.00;41.10;;;;;;5051011;28;20045;-66
2022/03/13 12:24:57;;;;;;;9.43;6.80;;;20.10;40.80;;;;;;5053468;28;20555;-66
2022/03/13 12:27:26;;;;;;;10.48;6.35;;;20.30;40.60;;;;;;5049096;28;20046;-66
2022/03/13 12:29:58;;;;;;;8.85;6.20;;;20.70;40.50;;;;;;5042219;28;20511;-66
2022/03/13 12:32:37;;;;;;;8.68;6.25;;;21.10;40.90;;;;;;5060565;28;20041;-66
2022/03/13 12:35:05;;;;;;;9.02;6.60;;;21.50;40.30;;;;;;5058027;28;20102;-66
2022/03/13 12:37:32;;;;;;;10.52;6.70;;;21.50;39.90;;;;;;5064018;28;20124;-64
2022/03/13 12:40:02;;;;;;;12.65;6.85;;;21.70;39.80;;;;;;5064315;28;20086;-67
2022/03/13 12:42:34;;;;;;;9.75;7.00;;;22.20;39.20;;;;;;5060556;28;20304;-67
2022/03/13 12:45:08;;;;;;;10.65;6.85;;;22.60;39.20;;;;;;5053049;28;20048;-66
2022/03/13 12:47:40;;;;;;;10.43;6.65;;;22.90;39.20;;;;;;5063839;28;20067;-66
2022/03/13 12:50:12;;;;;;;11.07;7.20;;;23.30;38.50;;;;;;5058852;28;20045;-66
2022/03/13 12:52:42;;;;;;;13.00;6.88;;;23.20;38.20;;;;;;5059165;28;20044;-66
2022/03/13 12:55:10;;;;;;;10.70;7.30;;;23.00;38.30;;;;;;5063243;28;20090;-66
2022/03/13 12:57:38;;;;;;;10.38;7.03;;;23.10;38.30;;;;;;5060265;28;20136;-66
2022/03/13 13:00:08;;;;;;;11.35;6.68;;;23.80;38.00;;;;;;5048064;28;20097;-66